Time;durP1;ratioP1;P1;durP2;ratioP2;P2;SDS_P1;SDS_P2;PMS_P1;PMS_P2;Temp;Humidity;BMP_temperature;BMP_pressure;BME280_temperature;BME280_humidity;BME280_pressure;Samples;Min_cycle;Max_cycle;Signal;HPM_P1;HPM_P2
2021/01/07 00:01:00;;;;;;;0.60;0.60;;;1.80;99.90;;;2.46;100.00;56075.69;5021192;28;20269;-68
2021/01/07 00:03:27;;;;;;;0.60;0.50;;;1.80;99.90;;;2.48;100.00;57048.84;5010509;28;20222;-69
2021/01/07 00:05:55;;;;;;;0.70;0.65;;;1.80;99.90;;;2.39;100.00;57688.53;5021440;28;20218;-69
2021/01/07 00:08:22;;;;;;;0.60;0.60;;;1.80;99.90;;;2.48;100.00;58993.47;5007557;28;20195;-69
2021/01/07 00:10:49;;;;;;;0.60;0.50;;;1.80;99.90;;;2.48;100.00;59317.59;5025772;28;20197;-69
2021/01/07 00:13:17;;;;;;;0.70;0.63;;;1.80;99.90;;;2.57;100.00;59975.03;5029463;28;20178;-68
2021/01/07 00:15:44;;;;;;;0.60;0.50;;;1.90;99.90;;;2.49;100.00;59966.50;5009487;28;20211;-68
2021/01/07 00:18:11;;;;;;;0.60;0.50;;;1.90;99.90;;;2.40;100.00;59957.44;5013855;28;20186;-69
2021/01/07 00:20:38;;;;;;;2.15;0.85;;;1.90;99.90;;;2.55;100.00;60621.44;5016852;28;20253;-69
2021/01/07 00:23:05;;;;;;;0.60;0.50;;;1.90;99.90;;;2.47;100.00;59964.34;5042296;28;20198;-68
2021/01/07 00:25:32;;;;;;;0.60;0.60;;;1.90;99.90;;;2.38;100.00;59955.81;5021389;28;20183;-69
2021/01/07 00:27:59;;;;;;;0.60;0.50;;;1.90;99.90;;;2.38;100.00;59955.81;5022290;28;20245;-68
2021/01/07 00:30:27;;;;;;;0.60;0.50;;;1.90;99.90;;;2.47;100.00;59964.91;5023370;28;20222;-68
2021/01/07 00:32:54;;;;;;;0.60;0.60;;;1.80;99.90;;;2.47;100.00;59964.91;5028440;28;20737;-70
2021/01/07 00:35:21;;;;;;;1.25;1.17;;;1.90;99.90;;;2.41;100.00;59634.88;5017355;28;20687;-70
2021/01/07 00:37:47;;;;;;;0.70;0.60;;;1.90;99.90;;;2.37;100.00;58981.94;5018407;28;20225;-69
2021/01/07 00:40:15;;;;;;;0.60;0.60;;;1.80;99.90;;;2.38;100.00;58659.44;5023571;28;20195;-69
2021/01/07 00:42:43;;;;;;;0.60;0.60;;;1.80;99.90;;;2.42;100.00;58339.59;5002946;28;20267;-69
2021/01/07 00:45:11;;;;;;;0.60;0.60;;;1.80;99.90;;;2.38;100.00;57363.06;5012507;28;20687;-69
2021/01/07 00:47:41;;;;;;;0.70;0.60;;;1.80;99.90;;;2.39;100.00;57040.72;5030010;28;20335;-70
2021/01/07 00:50:09;;;;;;;0.60;0.60;;;1.90;99.90;;;2.44;100.00;56397.03;5014758;28;20678;-68
2021/01/07 00:52:37;;;;;;;0.60;0.60;;;1.90;99.90;;;2.49;100.00;55754.38;5013669;28;20184;-70
2021/01/07 00:55:05;;;;;;;0.60;0.50;;;1.90;99.90;;;2.75;100.00;55780.25;5013128;28;20717;-68
2021/01/07 00:57:33;;;;;;;0.60;0.60;;;1.90;99.90;;;2.78;100.00;54810.97;5022909;28;20681;-69
2021/01/07 01:00:00;;;;;;;0.60;0.60;;;1.90;99.90;;;2.76;100.00;53838.06;5035633;28;20217;-71
2021/01/07 01:02:27;;;;;;;0.93;0.88;;;1.90;99.90;;;2.74;100.00;53511.91;5021452;28;20191;-68
2021/01/07 01:04:55;;;;;;;1.00;0.80;;;1.90;99.90;;;2.54;100.00;52522.53;5024649;28;20186;-69
2021/01/07 01:07:22;;;;;;;0.60;0.60;;;1.90;99.90;;;2.48;100.00;51869.97;5015375;28;20209;-69
2021/01/07 01:09:49;;;;;;;0.60;0.60;;;1.90;99.90;;;2.46;100.00;51221.31;5001653;28;20620;-68
2021/01/07 01:12:17;;;;;;;0.60;0.60;;;1.90;99.90;;;2.55;100.00;51229.59;5018323;28;20557;-70
2021/01/07 01:14:44;;;;;;;0.60;0.60;;;1.90;99.90;;;2.58;100.00;50262.66;5013356;28;20211;-69
2021/01/07 01:17:11;;;;;;;0.70;0.70;;;1.90;99.90;;;2.71;100.00;49950.56;5011262;28;20194;-69
2021/01/07 01:19:38;;;;;;;0.60;0.60;;;1.90;99.90;;;2.75;100.00;49307.41;5010438;28;20218;-70
2021/01/07 01:22:06;;;;;;;0.65;0.60;;;1.90;99.90;;;2.80;100.00;48988.53;5021880;28;20541;-69
2021/01/07 01:24:33;;;;;;;0.60;0.50;;;1.90;99.90;;;2.67;100.00;48007.44;5019665;28;20191;-69
2021/01/07 01:27:02;;;;;;;0.60;0.60;;;1.90;99.90;;;2.50;100.00;47346.63;5011590;28;20218;-68
2021/01/07 01:29:29;;;;;;;1.00;1.00;;;1.90;99.90;;;2.42;100.00;47017.28;5044266;28;20222;-69
2021/01/07 01:31:56;;;;;;;0.60;0.60;;;2.00;99.90;;;2.42;100.00;46694.78;5006809;28;20187;-69
2021/01/07 01:34:24;;;;;;;0.70;0.70;;;1.90;99.90;;;2.37;100.00;46044.88;5006377;28;20566;-70
2021/01/07 01:36:52;;;;;;;0.60;0.60;;;1.90;99.90;;;2.42;100.00;45726.19;5022556;28;20674;-70
2021/01/07 01:39:20;;;;;;;0.60;0.60;;;1.90;99.90;;;2.33;100.00;43782.69;5028692;28;20677;-67
2021/01/07 01:41:48;;;;;;;0.60;0.60;;;1.90;99.90;;;2.37;100.00;43463.28;5015003;28;20642;-69
2021/01/07 01:44:17;;;;;;;0.60;0.60;;;1.90;99.90;;;2.35;100.00;42494.16;5021071;28;20253;-69
2021/01/07 01:46:44;;;;;;;0.60;0.50;;;1.90;99.90;;;2.32;100.00;41202.28;5000092;28;20199;-69
2021/01/07 01:49:12;;;;;;;0.60;0.50;;;1.90;99.90;;;2.37;100.00;40561.00;5042780;28;20209;-69
2021/01/07 01:51:40;;;;;;;0.60;0.60;;;1.90;99.90;;;2.42;100.00;39920.13;5018328;28;20186;-70
2021/01/07 01:54:07;;;;;;;0.70;0.70;;;1.90;99.90;;;2.44;100.00;38954.91;5023789;28;20195;-70
2021/01/07 01:56:35;;;;;;;0.70;0.70;;;1.90;99.90;;;2.49;100.00;37669.91;5003044;28;20191;-69
2021/01/07 01:59:04;;;;;;;2.55;1.17;;;1.90;99.90;;;2.54;100.00;37028.88;5031167;28;20693;-69
2021/01/07 02:01:31;;;;;;;0.60;0.50;;;1.90;99.90;;;2.56;100.00;36064.22;5005206;28;20174;-69
2021/01/07 02:03:58;;;;;;;0.60;0.60;;;1.90;99.90;;;2.41;100.00;35089.41;5008648;28;20221;-70
2021/01/07 02:06:28;;;;;;;0.60;0.60;;;1.90;99.90;;;2.32;100.00;34761.50;5027952;28;20190;-69
2021/01/07 02:08:56;;;;;;;0.60;0.60;;;1.90;99.90;;;2.32;100.00;34337.13;5028267;28;20205;-69
2021/01/07 02:11:23;;;;;;;0.63;0.57;;;1.90;99.90;;;2.29;100.00;33114.13;5032640;28;20190;-71
2021/01/07 02:13:51;;;;;;;0.60;0.60;;;1.90;99.90;;;2.28;100.00;31993.06;5030274;28;20328;-69
2021/01/07 02:16:23;;;;;;;0.80;0.80;;;1.90;99.90;;;2.30;100.00;30877.25;5023239;28;20562;-68
2021/01/07 02:18:52;;;;;;;1.08;0.93;;;1.90;99.90;;;2.38;100.00;30121.22;5046211;28;20188;-68
2021/01/07 02:21:20;;;;;;;0.60;0.60;;;1.90;99.90;;;2.47;100.00;29756.72;5019558;28;20596;-70
2021/01/07 02:23:49;;;;;;;0.60;0.50;;;1.90;99.90;;;2.38;100.00;28427.31;5030023;28;20196;-69
2021/01/07 02:26:18;;;;;;;0.60;0.50;;;1.90;99.90;;;2.40;100.00;27969.28;5039570;28;20262;-70
2021/01/07 02:28:45;;;;;;;0.60;0.60;;;1.90;99.90;;;2.49;100.00;27409.03;5030025;28;20267;-69
2021/01/07 02:31:12;;;;;;;0.60;0.60;;;1.90;99.90;;;2.64;100.00;26922.56;5017638;28;20206;-69
2021/01/07 02:33:40;;;;;;;0.60;0.50;;;1.90;99.90;;;2.57;100.00;25993.47;5034286;28;20572;-70
2021/01/07 02:36:07;;;;;;;3.10;0.98;;;1.90;99.90;;;2.48;100.00;25347.19;5026596;28;20246;-69
2021/01/07 02:38:36;;;;;;;0.60;0.50;;;1.90;99.90;;;2.59;100.00;25493.19;5028693;28;20198;-70
2021/01/07 02:41:04;;;;;;;0.60;0.60;;;1.90;99.90;;;2.51;100.00;24824.72;5001575;28;20197;-68
2021/01/07 02:43:31;;;;;;;0.60;0.50;;;1.90;99.90;;;2.34;100.00;23772.03;5001765;28;20284;-69
2021/01/07 02:45:58;;;;;;;0.60;0.50;;;1.90;99.90;;;2.38;100.00;23608.50;5015370;28;20191;-69
2021/01/07 02:48:24;;;;;;;0.60;0.50;;;1.90;99.90;;;2.49;100.00;23257.53;5011385;28;20199;-70
2021/01/07 02:50:51;;;;;;;0.60;0.60;;;2.00;99.90;;;2.61;100.00;22711.66;5026633;28;20198;-68
2021/01/07 02:53:18;;;;;;;0.60;0.60;;;1.90;99.90;;;2.53;100.00;21854.00;5017851;28;20269;-69
2021/01/07 02:55:46;;;;;;;0.60;0.50;;;2.00;99.90;;;2.56;100.00;21865.31;5018816;28;20285;-68
2021/01/07 02:58:33;;;;;;;0.60;0.60;;;2.00;99.90;;;2.46;100.00;20709.28;5020946;28;20574;-69
2021/01/07 03:01:00;;;;;;;0.60;0.50;;;2.00;99.90;;;2.50;100.00;21044.09;5016069;28;20218;-69
2021/01/07 03:03:27;;;;;;;0.60;0.50;;;2.00;99.90;;;2.71;100.00;21583.63;5014234;28;20207;-69
2021/01/07 03:05:54;;;;;;;0.60;0.50;;;2.00;99.90;;;2.63;100.00;20818.88;5014062;28;20260;-69
2021/01/07 03:08:21;;;;;;;0.60;0.50;;;2.00;99.90;;;2.58;100.00;20271.03;5023729;28;20244;-69
2021/01/07 03:10:49;;;;;;;0.60;0.57;;;2.00;99.90;;;2.57;100.00;19925.38;5020803;28;20195;-69
2021/01/07 03:13:16;;;;;;;0.60;0.60;;;2.00;99.90;;;2.65;100.00;20606.84;5003202;28;20598;-69
2021/01/07 03:15:44;;;;;;;0.88;0.88;;;2.00;99.90;;;2.58;100.00;20105.81;5020499;28;20195;-69
2021/01/07 03:18:11;;;;;;;0.60;0.50;;;2.00;99.90;;;2.54;100.00;19548.75;5022490;28;20650;-69
2021/01/07 03:20:38;;;;;;;0.77;0.77;;;2.00;99.90;;;2.54;100.00;19573.56;5019349;28;20203;-69
2021/01/07 03:23:05;;;;;;;0.60;0.50;;;2.00;99.90;;;2.59;100.00;19833.53;5016962;28;20187;-69
2021/01/07 03:25:32;;;;;;;0.60;0.50;;;2.00;99.90;;;2.65;100.00;19758.09;5015488;28;20266;-69
2021/01/07 03:28:00;;;;;;;0.60;0.60;;;2.00;99.90;;;2.47;100.00;18875.41;5011859;28;20194;-70
2021/01/07 03:30:26;;;;;;;0.60;0.60;;;2.00;99.90;;;2.54;100.00;18782.78;5023258;28;20690;-68
2021/01/07 03:32:53;;;;;;;0.60;0.60;;;2.00;99.90;;;2.74;100.00;19481.00;5030329;28;20240;-70
2021/01/07 03:35:20;;;;;;;0.60;0.60;;;2.10;99.90;;;2.59;100.00;18930.00;5014832;28;20231;-69
2021/01/07 03:37:47;;;;;;;0.60;0.60;;;2.00;99.90;;;2.61;100.00;19143.28;5007173;28;20222;-71
2021/01/07 03:40:14;;;;;;;0.60;0.60;;;2.00;99.90;;;2.62;100.00;19121.16;5024942;28;20218;-68
2021/01/07 03:42:41;;;;;;;0.60;0.50;;;2.00;99.90;;;2.73;100.00;19731.00;5015246;28;20210;-69
2021/01/07 03:45:11;;;;;;;0.60;0.50;;;2.00;99.90;;;2.75;100.00;19586.75;5030836;28;20226;-69
2021/01/07 03:47:38;;;;;;;0.60;0.50;;;2.00;99.90;;;2.48;100.00;18205.13;5000920;28;20659;-69
2021/01/07 03:50:06;;;;;;;0.60;0.60;;;2.00;99.90;;;2.67;100.00;19233.38;5019716;28;20199;-69
2021/01/07 03:52:33;;;;;;;0.60;0.60;;;2.00;99.90;;;2.87;100.00;19631.28;5008008;28;20200;-70
2021/01/07 03:54:59;;;;;;;0.60;0.57;;;2.00;99.90;;;2.87;100.00;19070.59;5011130;28;20211;-68
2021/01/07 03:57:26;;;;;;;0.60;0.50;;;2.00;99.90;;;2.53;100.00;18702.34;5029342;28;20198;-69
2021/01/07 03:59:53;;;;;;;0.60;0.57;;;2.00;99.90;;;2.53;100.00;19418.00;5026518;28;20211;-69
2021/01/07 04:02:21;;;;;;;0.60;0.60;;;2.00;99.90;;;2.51;100.00;19597.44;5008383;28;20279;-68
2021/01/07 04:04:48;;;;;;;0.60;0.50;;;2.00;99.90;;;2.51;100.00;19572.41;5010680;28;20191;-70
2021/01/07 04:07:15;;;;;;;0.60;0.50;;;2.00;99.90;;;2.67;100.00;20144.63;5002713;28;20234;-70
2021/01/07 04:09:42;;;;;;;0.60;0.50;;;2.00;99.90;;;2.41;100.00;18993.41;5028795;28;20241;-70
2021/01/07 04:12:09;;;;;;;0.60;0.60;;;2.00;99.90;;;2.42;100.00;19221.28;5010398;28;20206;-68
2021/01/07 04:14:35;;;;;;;0.60;0.60;;;2.00;99.90;;;2.53;100.00;19655.97;5020093;28;20216;-69
2021/01/07 04:17:03;;;;;;;0.60;0.60;;;2.00;99.90;;;2.62;100.00;20282.66;5015584;28;20190;-69
2021/01/07 04:19:31;;;;;;;0.60;0.50;;;2.00;99.90;;;2.53;100.00;19946.13;5001567;28;20650;-69
2021/01/07 04:22:00;;;;;;;0.60;0.50;;;2.00;99.90;;;2.49;100.00;19992.09;5027393;28;20202;-69
2021/01/07 04:24:27;;;;;;;0.60;0.50;;;2.00;99.90;;;2.50;100.00;20518.16;5022425;28;20191;-68
2021/01/07 04:26:54;;;;;;;0.60;0.50;;;2.00;99.90;;;2.50;100.00;20578.22;5019134;28;20206;-70
2021/01/07 04:29:21;;;;;;;0.60;0.50;;;2.00;99.90;;;2.68;100.00;21547.28;5029386;28;20210;-69
2021/01/07 04:31:48;;;;;;;0.60;0.50;;;2.00;99.90;;;2.63;100.00;21602.78;5014051;28;20187;-69
2021/01/07 04:34:15;;;;;;;0.63;0.60;;;2.00;99.90;;;2.69;100.00;21728.06;5007000;28;20273;-69
2021/01/07 04:36:43;;;;;;;0.60;0.50;;;2.00;99.90;;;2.64;100.00;21400.31;5024817;28;20285;-69
2021/01/07 04:39:10;;;;;;;0.70;0.60;;;2.00;99.90;;;2.64;100.00;21728.44;5031952;28;20244;-69
2021/01/07 04:41:37;;;;;;;0.60;0.60;;;2.00;99.90;;;2.56;100.00;21482.13;5005088;28;20202;-69
2021/01/07 04:44:05;;;;;;;0.60;0.60;;;2.00;99.90;;;2.74;100.00;22386.63;5020712;28;20296;-70
2021/01/07 04:46:33;;;;;;;0.60;0.60;;;2.10;99.90;;;2.78;100.00;22916.94;5018782;28;20187;-70
2021/01/07 04:49:01;;;;;;;0.60;0.50;;;2.10;99.90;;;2.89;100.00;22824.28;5012168;28;20203;-68
2021/01/07 04:51:28;;;;;;;0.60;0.60;;;2.10;99.90;;;2.73;100.00;22917.47;5026788;28;20589;-70
2021/01/07 04:53:56;;;;;;;0.85;0.85;;;2.10;99.90;;;2.76;100.00;23818.41;5021392;28;20243;-69
2021/01/07 04:56:23;;;;;;;0.60;0.50;;;2.10;99.90;;;2.70;100.00;24041.50;5022382;28;20230;-70
2021/01/07 04:58:50;;;;;;;0.60;0.50;;;2.10;99.90;;;2.90;100.00;24885.69;5026875;28;20241;-69
2021/01/07 05:01:17;;;;;;;0.60;0.60;;;2.10;99.90;;;2.75;100.00;23913.22;5016376;28;20729;-69
2021/01/07 05:03:46;;;;;;;0.60;0.60;;;2.10;99.90;;;2.81;100.00;24485.41;5018259;28;20265;-68
2021/01/07 05:06:13;;;;;;;0.60;0.50;;;2.10;99.90;;;2.63;100.00;23862.81;5012552;28;20213;-70
2021/01/07 05:08:40;;;;;;;0.70;0.65;;;2.10;99.90;;;2.65;100.00;24761.19;5005845;28;20731;-70
2021/01/07 05:11:08;;;;;;;0.60;0.60;;;2.10;99.90;;;2.64;100.00;25229.56;5003212;28;20323;-70
2021/01/07 05:13:41;;;;;;;1.35;1.25;;;2.00;99.90;;;2.74;100.00;25758.34;5018170;28;20199;-68
2021/01/07 05:16:21;;;;;;;0.60;0.50;;;2.00;99.90;;;2.68;100.00;25030.91;5008011;28;20195;-69
2021/01/07 05:18:47;;;;;;;0.60;0.50;;;2.00;99.90;;;2.76;100.00;25205.03;5022260;28;20251;-70
2021/01/07 05:21:20;;;;;;;0.60;0.50;;;2.00;99.90;;;2.70;100.00;25227.47;5010365;28;20597;-69
2021/01/07 05:23:48;;;;;;;0.60;0.52;;;2.00;99.90;;;2.59;100.00;24542.75;5012781;28;20237;-68
2021/01/07 05:26:18;;;;;;;0.60;0.50;;;2.00;99.90;;;2.60;100.00;24576.03;5021016;28;20269;-69
2021/01/07 05:28:46;;;;;;;0.60;0.60;;;2.00;99.90;;;2.55;100.00;24773.97;5026728;28;20238;-69
2021/01/07 05:31:18;;;;;;;0.60;0.50;;;2.00;99.90;;;2.49;100.00;24089.66;5013674;28;20219;-69
2021/01/07 05:33:45;;;;;;;0.60;0.60;;;2.00;99.90;;;2.47;100.00;23672.53;5035006;28;20196;-70
2021/01/07 05:36:21;;;;;;;0.60;0.50;;;2.00;99.90;;;2.45;100.00;22864.94;5026085;28;20285;-69
2021/01/07 05:38:49;;;;;;;0.60;0.50;;;2.00;99.90;;;2.51;100.00;23032.94;5031823;28;20259;-70
2021/01/07 05:41:18;;;;;;;0.60;0.52;;;2.00;99.90;;;2.71;100.00;22781.25;5017806;28;20354;-68
2021/01/07 05:43:44;;;;;;;0.60;0.50;;;2.00;99.90;;;2.50;100.00;20833.78;5031068;28;20749;-69
2021/01/07 05:46:12;;;;;;;0.60;0.60;;;2.00;99.90;;;2.55;100.00;20284.84;5009948;28;20271;-69
2021/01/07 05:48:39;;;;;;;0.60;0.50;;;2.00;99.90;;;2.54;100.00;20006.59;5008963;28;20195;-68
2021/01/07 05:51:07;;;;;;;0.60;0.60;;;2.00;99.90;;;2.67;100.00;19598.66;5021580;28;20195;-70
2021/01/07 05:53:34;;;;;;;3.85;1.67;;;2.00;99.90;;;2.50;100.00;18050.75;5047639;28;20213;-68
2021/01/07 05:56:02;;;;;;;0.60;0.50;;;1.90;99.90;;;2.36;100.00;17170.81;5011148;28;20238;-68
2021/01/07 05:58:31;;;;;;;0.60;0.60;;;1.80;99.90;;;2.55;100.00;17587.28;5020317;28;20245;-69
2021/01/07 06:01:01;;;;;;;0.60;0.60;;;1.80;99.90;;;2.53;100.00;16668.72;5031949;28;20232;-69
2021/01/07 06:03:33;;;;;;;0.60;0.50;;;1.80;99.90;;;2.37;100.00;15621.31;5018670;28;20195;-69
2021/01/07 06:06:01;;;;;;;0.60;0.50;;;1.80;99.90;;;2.28;100.00;14369.22;5007960;28;20179;-69
2021/01/07 06:08:29;;;;;;;0.60;0.52;;;1.70;99.90;;;2.13;100.00;13423.38;5016991;28;20219;-70
2021/01/07 06:10:59;;;;;;;3.80;1.00;;;1.60;99.90;;;2.00;100.00;12286.81;5032463;28;20618;-70
2021/01/07 06:13:27;;;;;;;0.60;0.60;;;1.50;99.90;;;2.00;100.00;11326.19;5032466;28;20288;-69
2021/01/07 06:15:56;;;;;;;0.60;0.60;;;1.50;99.90;;;2.08;100.00;10245.78;5021775;28;20963;-70
2021/01/07 06:18:24;;;;;;;0.60;0.60;;;1.50;99.90;;;2.04;100.00;8484.59;5040537;28;20209;-70
2021/01/07 06:21:00;;;;;;;0.60;0.60;;;1.50;99.90;;;2.13;100.00;7085.78;5014836;28;20195;-70
2021/01/07 06:23:31;;;;;;;0.60;0.50;;;1.60;99.90;;;2.25;100.00;5747.41;5016303;28;20509;-71
2021/01/07 06:26:20;;;;;;;0.60;0.60;;;1.60;99.90;;;2.16;100.00;4231.91;5015197;28;20171;-70
2021/01/07 06:28:52;;;;;;;0.60;0.50;;;1.60;99.90;;;2.09;100.00;3068.63;5030483;28;20354;-70
2021/01/07 06:31:29;;;;;;;0.60;0.60;;;1.60;99.90;;;1.95;100.00;1636.81;5019308;28;20175;-70
2021/01/07 06:33:56;;;;;;;0.60;0.50;;;1.50;99.90;;;1.99;100.00;697.16;5030442;28;20304;-70
2021/01/07 06:36:36;;;;;;;0.60;0.60;;;1.50;99.90;;;2.03;100.00;-411.31;5015008;28;20617;-70
2021/01/07 06:39:06;;;;;;;0.60;0.60;;;1.50;99.90;;;2.05;100.00;-1032.56;5029352;28;20190;-70
2021/01/07 06:41:34;;;;;;;0.60;0.60;;;1.50;99.90;;;2.11;100.00;-2175.44;5006200;28;20218;-70
2021/01/07 06:44:03;;;;;;;0.60;0.50;;;1.60;99.90;;;2.12;100.00;-3238.69;5016051;28;20227;-70
2021/01/07 06:46:40;;;;;;;0.60;0.50;;;1.60;99.90;;;2.21;100.00;-4217.25;5021598;28;20192;-70
2021/01/07 06:49:21;;;;;;;0.60;0.50;;;1.70;99.90;;;2.25;100.00;-5014.41;5015699;28;20670;-71
2021/01/07 06:51:54;;;;;;;0.60;0.60;;;1.70;99.90;;;2.26;100.00;-5890.84;5011706;28;20199;-70
2021/01/07 06:54:24;;;;;;;1.35;1.25;;;1.70;99.90;;;2.28;100.00;-6841.59;5041670;28;20182;-70
2021/01/07 06:56:54;;;;;;;0.60;0.50;;;1.80;99.90;;;2.41;100.00;-7390.78;5020847;28;20230;-69
2021/01/07 06:59:22;;;;;;;0.60;0.50;;;1.80;99.90;;;2.56;100.00;-7793.78;5014681;28;20251;-70
2021/01/07 07:01:53;;;;;;;0.60;0.60;;;1.80;99.90;;;2.45;100.00;-8631.75;5014233;28;20187;-70
2021/01/07 07:04:28;;;;;;;0.63;0.50;;;1.90;99.90;;;2.53;100.00;-9039.31;5011379;28;20254;-68
2021/01/07 07:07:01;;;;;;;0.88;0.88;;;1.90;99.90;;;2.66;100.00;-9119.84;5021286;28;20278;-70
2021/01/07 07:09:37;;;;;;;0.60;0.60;;;1.90;99.90;;;2.77;100.00;-9334.19;5027276;28;20209;-72
2021/01/07 07:12:06;;;;;;;0.60;0.50;;;2.00;99.90;;;2.79;100.00;-9384.06;5023873;28;20613;-70
2021/01/07 07:14:33;;;;;;;0.60;0.50;;;2.00;99.90;;;2.68;100.00;-9522.00;5029507;28;20245;-70
2021/01/07 07:17:11;;;;;;;0.60;0.50;;;2.00;99.90;;;2.77;100.00;-9512.88;4998523;28;20254;-70
2021/01/07 07:19:38;;;;;;;0.60;0.50;;;2.00;99.90;;;2.66;100.00;-9973.38;5014619;28;20555;-71
2021/01/07 07:22:08;;;;;;;0.65;0.60;;;2.00;99.90;;;2.81;100.00;-9756.47;5014646;28;20249;-71
2021/01/07 07:24:42;;;;;;;0.60;0.50;;;2.00;99.90;;;2.71;100.00;-10336.13;5016184;28;20213;-71
2021/01/07 07:27:11;;;;;;;0.60;0.50;;;2.00;99.90;;;2.73;100.00;-10177.50;5015111;28;20186;-71
2021/01/07 07:29:44;;;;;;;0.60;0.50;;;2.00;99.90;;;2.69;100.00;-10335.91;5028430;28;20252;-71
2021/01/07 07:32:23;;;;;;;0.60;0.50;;;2.00;99.90;;;2.58;100.00;-10493.47;5014656;28;20669;-69
2021/01/07 07:34:52;;;;;;;0.60;0.50;;;1.90;99.90;;;2.65;100.00;-10588.47;5014662;28;20191;-69
2021/01/07 07:37:22;;;;;;;0.60;0.60;;;1.90;99.90;;;2.76;100.00;-10567.38;5012022;28;20202;-70
2021/01/07 07:39:56;;;;;;;0.60;0.50;;;2.00;99.90;;;2.58;100.00;-11016.75;5016799;28;20249;-70
2021/01/07 07:42:28;;;;;;;0.60;0.55;;;1.90;99.90;;;2.58;100.00;-11103.59;5018129;28;20198;-68
2021/01/07 07:44:57;;;;;;;0.60;0.50;;;1.90;99.90;;;2.70;100.00;-11045.38;5009507;28;20632;-71
2021/01/07 07:47:25;;;;;;;0.60;0.60;;;1.90;99.90;;;2.72;100.00;-11226.69;5021825;28;20209;-70
2021/01/07 07:49:56;;;;;;;0.60;0.50;;;1.90;99.90;;;2.75;100.00;-11413.06;5016194;28;20262;-70
2021/01/07 07:52:24;;;;;;;0.60;0.50;;;1.90;99.90;;;2.58;100.00;-11906.88;5013855;28;20187;-69
2021/01/07 07:55:00;;;;;;;0.60;0.50;;;1.90;99.90;;;2.73;100.00;-11732.72;5009376;28;20517;-70
2021/01/07 07:57:26;;;;;;;0.60;0.55;;;1.90;99.90;;;2.69;100.00;-12131.47;5013786;28;20186;-70
2021/01/07 07:59:53;;;;;;;0.60;0.60;;;2.00;99.90;;;2.56;100.00;-12246.28;5013796;28;20914;-68
2021/01/07 08:02:21;;;;;;;0.60;0.60;;;2.00;99.90;;;2.58;100.00;-12467.09;5014309;28;20651;-70
2021/01/07 08:04:48;;;;;;;0.60;0.50;;;1.90;99.90;;;2.60;100.00;-12901.22;5013028;28;20195;-70
2021/01/07 08:07:15;;;;;;;0.60;0.50;;;2.00;99.90;;;2.53;100.00;-13447.81;5016087;28;20187;-70
2021/01/07 08:09:42;;;;;;;0.60;0.60;;;2.00;99.90;;;2.56;100.00;-13864.44;5010973;28;20261;-70
2021/01/07 08:12:10;;;;;;;0.80;0.80;;;2.00;99.90;;;2.57;100.00;-14464.13;5012476;28;20518;-69
2021/01/07 08:14:40;;;;;;;0.60;0.50;;;2.00;99.90;;;2.59;100.00;-14888.16;5019641;28;20211;-71
2021/01/07 08:17:07;;;;;;;0.60;0.60;;;2.00;99.90;;;2.56;100.00;-15306.16;4999715;28;20200;-70
2021/01/07 08:19:35;;;;;;;0.60;0.50;;;2.00;99.90;;;2.73;100.00;-15507.47;5026510;28;20580;-69
2021/01/07 08:22:04;;;;;;;0.60;0.50;;;2.00;99.90;;;2.63;100.00;-15891.84;5014581;28;20198;-69
2021/01/07 08:24:32;;;;;;;0.60;0.50;;;2.00;99.90;;;2.56;100.00;-16247.00;5026957;28;20212;-70
2021/01/07 08:27:16;;;;;;;0.60;0.50;;;2.00;99.90;;;2.59;100.00;-16683.31;5016040;28;20191;-69
2021/01/07 08:29:46;;;;;;;1.33;1.08;;;1.90;99.90;;;2.49;100.00;-16844.56;5011160;28;20211;-69
2021/01/07 08:32:18;;;;;;;0.60;0.60;;;1.90;99.90;;;2.56;100.00;-16900.63;5016572;28;20186;-70
2021/01/07 08:34:47;;;;;;;0.60;0.60;;;1.90;99.90;;;2.42;100.00;-17293.63;5016147;28;20197;-70
2021/01/07 08:37:17;;;;;;;0.60;0.50;;;1.80;99.90;;;2.54;100.00;-17239.16;5029918;28;20551;-69
2021/01/07 08:39:44;;;;;;;0.60;0.50;;;1.70;99.90;;;2.31;100.00;-17602.78;5012369;28;20209;-70
2021/01/07 08:42:14;;;;;;;0.60;0.50;;;1.60;99.90;;;2.18;100.00;-17641.97;5012948;28;20674;-70
2021/01/07 08:44:44;;;;;;;0.60;0.60;;;1.50;99.90;;;2.05;100.00;-17854.13;5012239;28;20241;-70
2021/01/07 08:47:23;;;;;;;0.60;0.50;;;1.50;99.90;;;2.02;100.00;-18160.00;5025376;28;20214;-70
2021/01/07 08:50:09;;;;;;;0.60;0.60;;;1.50;99.90;;;2.13;100.00;-18464.22;5025161;28;20201;-70
2021/01/07 08:52:51;;;;;;;0.60;0.60;;;1.50;99.90;;;2.11;100.00;-18800.06;5015119;28;20240;-70
2021/01/07 08:55:19;;;;;;;0.60;0.60;;;1.50;99.90;;;2.25;100.00;-18971.56;5016033;28;20206;-69
2021/01/07 08:57:46;;;;;;;0.60;0.50;;;1.60;99.90;;;2.24;100.00;-19322.34;5018735;28;20199;-69
2021/01/07 09:00:17;;;;;;;0.60;0.55;;;1.60;99.90;;;2.30;100.00;-19531.56;5016538;28;20683;-71
2021/01/07 09:02:44;;;;;;;1.10;1.02;;;1.70;99.90;;;2.55;100.00;-19654.03;5022830;28;20182;-70
2021/01/07 09:05:12;;;;;;;0.60;0.50;;;1.70;99.90;;;2.46;100.00;-19926.13;5016025;28;20184;-70
2021/01/07 09:07:39;;;;;;;0.60;0.60;;;1.70;99.90;;;2.42;100.00;-20103.34;5026409;28;20471;-70
2021/01/07 09:10:10;;;;;;;0.60;0.50;;;1.70;99.90;;;2.55;100.00;-20210.44;5006348;28;20195;-70
2021/01/07 09:12:37;;;;;;;0.60;0.60;;;1.80;99.90;;;2.70;100.00;-20226.84;5011107;28;20191;-71
2021/01/07 09:15:07;;;;;;;0.60;0.50;;;1.80;99.90;;;2.62;100.00;-20353.28;5010044;28;20305;-69
2021/01/07 09:17:43;;;;;;;0.60;0.60;;;1.70;99.90;;;2.53;100.00;-20467.16;5018262;28;20195;-71
2021/01/07 09:20:14;;;;;;;0.60;0.50;;;1.80;99.90;;;2.54;100.00;-20516.88;5015461;28;20182;-70
2021/01/07 09:22:42;;;;;;;0.60;0.50;;;1.80;99.90;;;2.69;100.00;-20557.81;5010540;28;20195;-69
2021/01/07 09:25:17;;;;;;;1.17;1.08;;;1.80;99.90;;;2.69;100.00;-20659.38;5027675;28;20178;-70
2021/01/07 09:27:44;;;;;;;0.60;0.60;;;1.80;99.90;;;2.84;100.00;-20663.53;5026631;28;20265;-70
2021/01/07 09:30:13;;;;;;;0.60;0.55;;;1.90;99.90;;;2.71;100.00;-20744.00;5011698;28;20218;-69
2021/01/07 09:32:40;;;;;;;0.60;0.50;;;1.90;99.90;;;2.62;100.00;-20753.22;5020534;28;20196;-69
2021/01/07 09:35:11;;;;;;;0.68;0.60;;;1.90;99.90;;;2.74;100.00;-20680.53;5010679;28;20175;-69
2021/01/07 09:37:58;;;;;;;0.60;0.52;;;1.90;99.90;;;2.61;100.00;-20752.94;5009026;28;20187;-69
2021/01/07 09:40:26;;;;;;;0.60;0.60;;;1.90;99.90;;;2.79;100.00;-20748.69;5014639;28;20218;-69
2021/01/07 09:42:53;;;;;;;0.60;0.50;;;1.90;99.90;;;2.82;100.00;-20724.81;5007379;28;20683;-70
2021/01/07 09:45:21;;;;;;;0.60;0.55;;;2.00;99.90;;;2.77;100.00;-20757.28;5006148;28;20218;-70
2021/01/07 09:47:48;;;;;;;0.70;0.70;;;2.00;99.90;;;2.86;100.00;-20757.94;5031467;28;20673;-70
2021/01/07 09:50:15;;;;;;;0.60;0.50;;;2.00;99.90;;;2.80;100.00;-20758.25;5012964;28;20199;-69
2021/01/07 09:52:42;;;;;;;0.60;0.50;;;2.00;99.90;;;2.89;100.00;-20711.91;5003663;28;20187;-70
2021/01/07 09:55:11;;;;;;;0.60;0.50;;;2.00;99.90;;;2.98;100.00;-20654.75;5009144;28;20287;-70
2021/01/07 09:57:46;;;;;;;0.60;0.50;;;2.10;99.90;;;3.09;100.00;-20595.94;5009192;28;20225;-70
2021/01/07 10:00:15;;;;;;;0.60;0.50;;;2.10;99.90;;;3.03;100.00;-20623.97;5013831;28;20621;-71
2021/01/07 10:02:42;;;;;;;0.60;0.57;;;2.20;99.90;;;2.94;100.00;-20626.44;5010985;28;20187;-70
2021/01/07 10:05:11;;;;;;;0.60;0.50;;;2.20;99.90;;;3.21;100.00;-20547.16;5006629;28;20191;-70
2021/01/07 10:07:38;;;;;;;1.05;0.85;;;2.20;99.90;;;3.20;100.00;-20591.56;5029193;28;20244;-70
2021/01/07 10:10:06;;;;;;;3.42;1.15;;;2.20;99.90;;;3.26;100.00;-20484.16;5020864;28;20187;-70
2021/01/07 10:12:33;;;;;;;0.60;0.50;;;2.30;99.90;;;3.33;100.00;-20456.38;5004756;28;20287;-71
2021/01/07 10:15:01;;;;;;;0.60;0.50;;;2.30;99.90;;;3.30;100.00;-20423.38;5022530;28;20208;-69
2021/01/07 10:17:28;;;;;;;0.77;0.77;;;2.40;99.90;;;3.34;100.00;-20424.59;5029574;28;20233;-70
2021/01/07 10:19:55;;;;;;;0.60;0.50;;;2.30;99.90;;;3.25;100.00;-20446.91;5031615;28;20190;-71
2021/01/07 10:22:25;;;;;;;0.70;0.60;;;2.30;99.90;;;3.26;100.00;-20424.75;5029831;28;20658;-71
2021/01/07 10:24:55;;;;;;;0.60;0.60;;;2.20;99.90;;;3.32;100.00;-20401.66;5018925;28;20263;-70
2021/01/07 10:27:23;;;;;;;0.60;0.50;;;2.20;99.90;;;3.14;100.00;-20463.69;5005775;28;20222;-70
2021/01/07 10:29:50;;;;;;;0.60;0.52;;;2.30;99.90;;;3.46;100.00;-20291.56;5022754;28;20206;-71
2021/01/07 10:32:19;;;;;;;0.60;0.50;;;2.40;99.90;;;3.65;100.00;-20212.22;5024445;28;20190;-70